sensor_id;sensor_type;location;lat;lon;timestamp;P1;durP1;ratioP1;P2;durP2;ratioP2
11269;SDS011;5692;48.956;9.200;2023-09-18T00:01:17;230.30;;;219.27;;
11269;SDS011;5692;48.956;9.200;2023-09-18T00:03:44;223.88;;;213.18;;
11269;SDS011;5692;48.956;9.200;2023-09-18T00:06:11;217.65;;;207.23;;
11269;SDS011;5692;48.956;9.200;2023-09-18T00:08:38;219.53;;;209.03;;
11269;SDS011;5692;48.956;9.200;2023-09-18T00:11:07;232.05;;;220.95;;
11269;SDS011;5692;48.956;9.200;2023-09-18T00:13:34;218.70;;;208.20;;
11269;SDS011;5692;48.956;9.200;2023-09-18T00:16:01;211.15;;;201.05;;
11269;SDS011;5692;48.956;9.200;2023-09-18T00:18:28;224.45;;;213.75;;
11269;SDS011;5692;48.956;9.200;2023-09-18T00:20:54;233.60;;;222.40;;
11269;SDS011;5692;48.956;9.200;2023-09-18T00:23:21;235.32;;;224.07;;
11269;SDS011;5692;48.956;9.200;2023-09-18T00:25:47;216.52;;;206.15;;
11269;SDS011;5692;48.956;9.200;2023-09-18T00:28:13;219.20;;;208.70;;
11269;SDS011;5692;48.956;9.200;2023-09-18T00:30:42;217.32;;;206.93;;
11269;SDS011;5692;48.956;9.200;2023-09-18T00:33:10;209.45;;;199.45;;
11269;SDS011;5692;48.956;9.200;2023-09-18T00:35:36;206.77;;;196.88;;
11269;SDS011;5692;48.956;9.200;2023-09-18T00:38:03;193.55;;;184.27;;
11269;SDS011;5692;48.956;9.200;2023-09-18T00:40:29;200.85;;;191.25;;
11269;SDS011;5692;48.956;9.200;2023-09-18T00:42:55;208.65;;;198.65;;
11269;SDS011;5692;48.956;9.200;2023-09-18T00:45:21;215.70;;;205.40;;
11269;SDS011;5692;48.956;9.200;2023-09-18T00:47:47;217.80;;;207.40;;
11269;SDS011;5692;48.956;9.200;2023-09-18T00:50:13;207.23;;;197.32;;
11269;SDS011;5692;48.956;9.200;2023-09-18T00:52:43;201.95;;;192.27;;
11269;SDS011;5692;48.956;9.200;2023-09-18T00:55:09;218.32;;;207.88;;
11269;SDS011;5692;48.956;9.200;2023-09-18T00:57:35;213.27;;;203.07;;
11269;SDS011;5692;48.956;9.200;2023-09-18T01:00:02;220.38;;;209.82;;
11269;SDS011;5692;48.956;9.200;2023-09-18T01:02:31;222.38;;;211.73;;
11269;SDS011;5692;48.956;9.200;2023-09-18T01:05:00;212.13;;;201.98;;
11269;SDS011;5692;48.956;9.200;2023-09-18T01:07:26;209.07;;;199.07;;
11269;SDS011;5692;48.956;9.200;2023-09-18T01:09:53;213.35;;;203.15;;
11269;SDS011;5692;48.956;9.200;2023-09-18T01:17:39;200.98;;;191.38;;
11269;SDS011;5692;48.956;9.200;2023-09-18T01:20:05;206.35;;;196.45;;
11269;SDS011;5692;48.956;9.200;2023-09-18T01:22:34;210.85;;;200.75;;
11269;SDS011;5692;48.956;9.200;2023-09-18T01:25:00;211.77;;;201.68;;
11269;SDS011;5692;48.956;9.200;2023-09-18T01:27:30;186.45;;;177.52;;
11269;SDS011;5692;48.956;9.200;2023-09-18T01:29:56;210.77;;;200.68;;
11269;SDS011;5692;48.956;9.200;2023-09-18T01:32:26;208.47;;;198.50;;
11269;SDS011;5692;48.956;9.200;2023-09-18T01:34:54;210.55;;;200.48;;
11269;SDS011;5692;48.956;9.200;2023-09-18T01:37:22;201.30;;;191.65;;
11269;SDS011;5692;48.956;9.200;2023-09-18T01:39:49;205.55;;;195.73;;
11269;SDS011;5692;48.956;9.200;2023-09-18T01:42:15;199.25;;;189.73;;
11269;SDS011;5692;48.956;9.200;2023-09-18T01:44:48;198.02;;;188.52;;
11269;SDS011;5692;48.956;9.200;2023-09-18T01:47:15;213.00;;;202.80;;
11269;SDS011;5692;48.956;9.200;2023-09-18T01:49:42;198.93;;;189.43;;
11269;SDS011;5692;48.956;9.200;2023-09-18T01:52:08;208.85;;;198.85;;
11269;SDS011;5692;48.956;9.200;2023-09-18T01:54:35;202.93;;;193.23;;
11269;SDS011;5692;48.956;9.200;2023-09-18T01:57:03;204.50;;;194.73;;
11269;SDS011;5692;48.956;9.200;2023-09-18T01:59:32;206.73;;;196.85;;
11269;SDS011;5692;48.956;9.200;2023-09-18T02:01:59;202.90;;;193.18;;
11269;SDS011;5692;48.956;9.200;2023-09-18T02:04:28;193.77;;;184.48;;
11269;SDS011;5692;48.956;9.200;2023-09-18T02:06:57;191.52;;;182.32;;
11269;SDS011;5692;48.956;9.200;2023-09-18T02:09:23;205.98;;;196.13;;
11269;SDS011;5692;48.956;9.200;2023-09-18T02:11:49;216.27;;;205.93;;
11269;SDS011;5692;48.956;9.200;2023-09-18T02:14:15;202.40;;;192.70;;
11269;SDS011;5692;48.956;9.200;2023-09-18T02:16:42;210.85;;;200.75;;
11269;SDS011;5692;48.956;9.200;2023-09-18T02:19:09;202.38;;;192.68;;
11269;SDS011;5692;48.956;9.200;2023-09-18T02:21:35;202.27;;;192.57;;
11269;SDS011;5692;48.956;9.200;2023-09-18T02:24:02;201.93;;;192.25;;
11269;SDS011;5692;48.956;9.200;2023-09-18T02:26:28;196.02;;;186.63;;
11269;SDS011;5692;48.956;9.200;2023-09-18T02:28:54;191.57;;;182.40;;
11269;SDS011;5692;48.956;9.200;2023-09-18T02:31:21;204.45;;;194.65;;
11269;SDS011;5692;48.956;9.200;2023-09-18T02:33:48;210.70;;;200.63;;
11269;SDS011;5692;48.956;9.200;2023-09-18T02:36:15;198.93;;;189.40;;
11269;SDS011;5692;48.956;9.200;2023-09-18T02:38:41;206.63;;;196.73;;
11269;SDS011;5692;48.956;9.200;2023-09-18T02:41:08;201.18;;;191.55;;
11269;SDS011;5692;48.956;9.200;2023-09-18T02:43:34;210.88;;;200.77;;
11269;SDS011;5692;48.956;9.200;2023-09-18T02:46:02;200.50;;;190.90;;
11269;SDS011;5692;48.956;9.200;2023-09-18T02:48:28;195.00;;;185.70;;
11269;SDS011;5692;48.956;9.200;2023-09-18T02:50:54;195.47;;;186.10;;
11269;SDS011;5692;48.956;9.200;2023-09-18T02:53:21;181.23;;;172.52;;
11269;SDS011;5692;48.956;9.200;2023-09-18T02:55:48;200.15;;;190.57;;
11269;SDS011;5692;48.956;9.200;2023-09-18T02:58:14;191.85;;;182.65;;
11269;SDS011;5692;48.956;9.200;2023-09-18T03:00:45;210.68;;;200.57;;
11269;SDS011;5692;48.956;9.200;2023-09-18T03:03:11;188.48;;;179.45;;
11269;SDS011;5692;48.956;9.200;2023-09-18T03:05:38;190.57;;;181.45;;
11269;SDS011;5692;48.956;9.200;2023-09-18T03:08:04;205.05;;;195.25;;
11269;SDS011;5692;48.956;9.200;2023-09-18T03:10:33;206.15;;;196.27;;
11269;SDS011;5692;48.956;9.200;2023-09-18T03:13:00;199.45;;;189.90;;
11269;SDS011;5692;48.956;9.200;2023-09-18T03:15:26;195.32;;;186.00;;
11269;SDS011;5692;48.956;9.200;2023-09-18T03:17:52;198.43;;;188.93;;
11269;SDS011;5692;48.956;9.200;2023-09-18T03:20:21;202.93;;;193.23;;
11269;SDS011;5692;48.956;9.200;2023-09-18T03:22:47;203.55;;;193.80;;
11269;SDS011;5692;48.956;9.200;2023-09-18T03:25:13;193.35;;;184.10;;
11269;SDS011;5692;48.956;9.200;2023-09-18T03:27:39;207.40;;;197.48;;
11269;SDS011;5692;48.956;9.200;2023-09-18T03:30:06;190.38;;;181.27;;
11269;SDS011;5692;48.956;9.200;2023-09-18T03:32:34;209.07;;;199.07;;
11269;SDS011;5692;48.956;9.200;2023-09-18T03:35:01;198.73;;;189.23;;
11269;SDS011;5692;48.956;9.200;2023-09-18T03:37:27;194.10;;;184.80;;
11269;SDS011;5692;48.956;9.200;2023-09-18T03:39:54;200.70;;;191.10;;
11269;SDS011;5692;48.956;9.200;2023-09-18T03:42:20;194.20;;;184.90;;
11269;SDS011;5692;48.956;9.200;2023-09-18T03:44:46;198.57;;;189.07;;
11269;SDS011;5692;48.956;9.200;2023-09-18T03:47:12;185.70;;;176.80;;
11269;SDS011;5692;48.956;9.200;2023-09-18T03:49:38;193.77;;;184.48;;
11269;SDS011;5692;48.956;9.200;2023-09-18T03:52:04;189.27;;;180.20;;
11269;SDS011;5692;48.956;9.200;2023-09-18T03:54:30;187.00;;;178.05;;
11269;SDS011;5692;48.956;9.200;2023-09-18T03:56:56;182.27;;;173.55;;
11269;SDS011;5692;48.956;9.200;2023-09-18T03:59:22;191.18;;;182.02;;
11269;SDS011;5692;48.956;9.200;2023-09-18T04:01:48;195.33;;;186.00;;
11269;SDS011;5692;48.956;9.200;2023-09-18T04:04:15;187.73;;;178.73;;
11269;SDS011;5692;48.956;9.200;2023-09-18T04:06:41;167.48;;;159.45;;
11269;SDS011;5692;48.956;9.200;2023-09-18T04:09:08;183.77;;;175.00;;
11269;SDS011;5692;48.956;9.200;2023-09-18T04:11:34;178.70;;;170.13;;
11269;SDS011;5692;48.956;9.200;2023-09-18T04:14:01;184.10;;;175.30;;
11269;SDS011;5692;48.956;9.200;2023-09-18T04:16:30;191.30;;;182.10;;
11269;SDS011;5692;48.956;9.200;2023-09-18T04:19:00;198.00;;;188.50;;
11269;SDS011;5692;48.956;9.200;2023-09-18T04:21:26;182.73;;;173.97;;
11269;SDS011;5692;48.956;9.200;2023-09-18T04:23:52;184.10;;;175.30;;
11269;SDS011;5692;48.956;9.200;2023-09-18T04:26:22;188.98;;;179.93;;
11269;SDS011;5692;48.956;9.200;2023-09-18T04:28:48;187.30;;;178.32;;
11269;SDS011;5692;48.956;9.200;2023-09-18T04:31:14;184.17;;;175.33;;
11269;SDS011;5692;48.956;9.200;2023-09-18T04:33:41;178.10;;;169.57;;
11269;SDS011;5692;48.956;9.200;2023-09-18T04:36:07;183.82;;;175.02;;
11269;SDS011;5692;48.956;9.200;2023-09-18T04:38:33;205.43;;;195.57;;
11269;SDS011;5692;48.956;9.200;2023-09-18T04:40:59;195.57;;;186.18;;
11269;SDS011;5692;48.956;9.200;2023-09-18T04:43:26;191.13;;;181.98;;
11269;SDS011;5692;48.956;9.200;2023-09-18T04:45:54;196.52;;;187.13;;
11269;SDS011;5692;48.956;9.200;2023-09-18T04:48:20;197.75;;;188.27;;
11269;SDS011;5692;48.956;9.200;2023-09-18T04:50:46;201.43;;;191.80;;
11269;SDS011;5692;48.956;9.200;2023-09-18T04:53:13;192.07;;;182.87;;
11269;SDS011;5692;48.956;9.200;2023-09-18T04:55:39;185.60;;;176.73;;
11269;SDS011;5692;48.956;9.200;2023-09-18T04:58:05;193.70;;;184.43;;
11269;SDS011;5692;48.956;9.200;2023-09-18T05:00:31;206.30;;;196.43;;
11269;SDS011;5692;48.956;9.200;2023-09-18T05:03:00;192.23;;;183.02;;
11269;SDS011;5692;48.956;9.200;2023-09-18T05:05:28;190.30;;;181.20;;
11269;SDS011;5692;48.956;9.200;2023-09-18T05:07:54;192.50;;;183.30;;
11269;SDS011;5692;48.956;9.200;2023-09-18T05:10:20;183.93;;;175.13;;
11269;SDS011;5692;48.956;9.200;2023-09-18T05:12:48;186.48;;;177.57;;
11269;SDS011;5692;48.956;9.200;2023-09-18T05:15:15;183.30;;;174.50;;
11269;SDS011;5692;48.956;9.200;2023-09-18T05:17:42;182.60;;;173.85;;
11269;SDS011;5692;48.956;9.200;2023-09-18T05:20:12;197.02;;;187.60;;
11269;SDS011;5692;48.956;9.200;2023-09-18T05:22:39;174.70;;;166.35;;
11269;SDS011;5692;48.956;9.200;2023-09-18T05:25:11;163.48;;;155.68;;
11269;SDS011;5692;48.956;9.200;2023-09-18T05:27:37;167.48;;;159.48;;
11269;SDS011;5692;48.956;9.200;2023-09-18T05:30:09;171.18;;;162.98;;
11269;SDS011;5692;48.956;9.200;2023-09-18T05:32:35;175.82;;;167.40;;
11269;SDS011;5692;48.956;9.200;2023-09-18T05:35:04;184.98;;;176.13;;
11269;SDS011;5692;48.956;9.200;2023-09-18T05:37:32;171.52;;;163.30;;
11269;SDS011;5692;48.956;9.200;2023-09-18T05:39:58;187.50;;;178.52;;
11269;SDS011;5692;48.956;9.200;2023-09-18T05:42:24;183.70;;;174.90;;
11269;SDS011;5692;48.956;9.200;2023-09-18T05:44:50;190.50;;;181.40;;
11269;SDS011;5692;48.956;9.200;2023-09-18T05:47:16;184.98;;;176.10;;
11269;SDS011;5692;48.956;9.200;2023-09-18T05:49:42;179.57;;;170.97;;
11269;SDS011;5692;48.956;9.200;2023-09-18T05:52:08;192.95;;;183.70;;
11269;SDS011;5692;48.956;9.200;2023-09-18T05:54:34;179.60;;;171.00;;
11269;SDS011;5692;48.956;9.200;2023-09-18T05:57:01;187.90;;;178.90;;
11269;SDS011;5692;48.956;9.200;2023-09-18T05:59:30;196.40;;;187.00;;
11269;SDS011;5692;48.956;9.200;2023-09-18T06:01:56;190.98;;;181.85;;
11269;SDS011;5692;48.956;9.200;2023-09-18T06:04:22;200.43;;;190.83;;
11269;SDS011;5692;48.956;9.200;2023-09-18T06:06:48;183.38;;;174.60;;
11269;SDS011;5692;48.956;9.200;2023-09-18T06:09:16;184.07;;;175.27;;
11269;SDS011;5692;48.956;9.200;2023-09-18T06:11:43;179.82;;;171.20;;
11269;SDS011;5692;48.956;9.200;2023-09-18T06:14:09;186.60;;;177.68;;
11269;SDS011;5692;48.956;9.200;2023-09-18T06:16:38;181.80;;;173.10;;
11269;SDS011;5692;48.956;9.200;2023-09-18T06:19:04;179.45;;;170.85;;
11269;SDS011;5692;48.956;9.200;2023-09-18T06:21:30;176.77;;;168.30;;
11269;SDS011;5692;48.956;9.200;2023-09-18T06:23:56;184.30;;;175.48;;
11269;SDS011;5692;48.956;9.200;2023-09-18T06:26:22;180.05;;;171.40;;
11269;SDS011;5692;48.956;9.200;2023-09-18T06:28:48;188.43;;;179.43;;
11269;SDS011;5692;48.956;9.200;2023-09-18T06:31:14;190.10;;;181.00;;
11269;SDS011;5692;48.956;9.200;2023-09-18T06:33:41;175.13;;;166.73;;
11269;SDS011;5692;48.956;9.200;2023-09-18T06:36:07;179.55;;;170.95;;
11269;SDS011;5692;48.956;9.200;2023-09-18T06:38:33;190.73;;;181.60;;
11269;SDS011;5692;48.956;9.200;2023-09-18T06:40:59;171.10;;;162.90;;
11269;SDS011;5692;48.956;9.200;2023-09-18T06:43:25;169.43;;;161.27;;
11269;SDS011;5692;48.956;9.200;2023-09-18T06:45:51;170.73;;;162.57;;
11269;SDS011;5692;48.956;9.200;2023-09-18T06:48:17;181.98;;;173.27;;
11269;SDS011;5692;48.956;9.200;2023-09-18T06:50:43;169.80;;;161.65;;
11269;SDS011;5692;48.956;9.200;2023-09-18T06:53:09;175.13;;;166.73;;
11269;SDS011;5692;48.956;9.200;2023-09-18T06:55:36;171.40;;;163.18;;
11269;SDS011;5692;48.956;9.200;2023-09-18T06:58:02;168.57;;;160.50;;
11269;SDS011;5692;48.956;9.200;2023-09-18T07:00:28;186.00;;;177.07;;
11269;SDS011;5692;48.956;9.200;2023-09-18T07:02:55;175.10;;;166.70;;
11269;SDS011;5692;48.956;9.200;2023-09-18T07:05:21;169.07;;;160.98;;
11269;SDS011;5692;48.956;9.200;2023-09-18T07:07:47;187.38;;;178.38;;
11269;SDS011;5692;48.956;9.200;2023-09-18T07:10:13;187.00;;;178.05;;
11269;SDS011;5692;48.956;9.200;2023-09-18T07:12:39;171.55;;;163.32;;
11269;SDS011;5692;48.956;9.200;2023-09-18T07:15:05;173.13;;;164.82;;
11269;SDS011;5692;48.956;9.200;2023-09-18T07:17:32;174.88;;;166.50;;
11269;SDS011;5692;48.956;9.200;2023-09-18T07:20:00;167.70;;;159.65;;
11269;SDS011;5692;48.956;9.200;2023-09-18T07:22:26;176.13;;;167.68;;
11269;SDS011;5692;48.956;9.200;2023-09-18T07:24:52;187.43;;;178.45;;
11269;SDS011;5692;48.956;9.200;2023-09-18T07:27:18;170.25;;;162.10;;
11269;SDS011;5692;48.956;9.200;2023-09-18T07:29:44;179.00;;;170.43;;
11269;SDS011;5692;48.956;9.200;2023-09-18T07:32:10;173.80;;;165.50;;
11269;SDS011;5692;48.956;9.200;2023-09-18T07:34:37;178.25;;;169.75;;
11269;SDS011;5692;48.956;9.200;2023-09-18T07:37:03;164.60;;;156.70;;
11269;SDS011;5692;48.956;9.200;2023-09-18T07:39:29;179.15;;;170.57;;
11269;SDS011;5692;48.956;9.200;2023-09-18T07:41:55;171.20;;;163.00;;
11269;SDS011;5692;48.956;9.200;2023-09-18T07:44:22;174.90;;;166.52;;
11269;SDS011;5692;48.956;9.200;2023-09-18T07:46:48;160.48;;;152.77;;
11269;SDS011;5692;48.956;9.200;2023-09-18T07:49:14;185.48;;;176.60;;
11269;SDS011;5692;48.956;9.200;2023-09-18T07:51:40;176.98;;;168.48;;
11269;SDS011;5692;48.956;9.200;2023-09-18T07:54:06;178.70;;;170.10;;
11269;SDS011;5692;48.956;9.200;2023-09-18T07:56:32;178.57;;;170.02;;
11269;SDS011;5692;48.956;9.200;2023-09-18T07:58:59;184.85;;;176.00;;
11269;SDS011;5692;48.956;9.200;2023-09-18T08:01:26;199.48;;;189.93;;
11269;SDS011;5692;48.956;9.200;2023-09-18T08:03:52;191.63;;;182.45;;
11269;SDS011;5692;48.956;9.200;2023-09-18T08:06:18;191.03;;;181.90;;
11269;SDS011;5692;48.956;9.200;2023-09-18T08:08:45;191.90;;;182.70;;
11269;SDS011;5692;48.956;9.200;2023-09-18T08:11:11;196.25;;;186.85;;
11269;SDS011;5692;48.956;9.200;2023-09-18T08:13:37;183.23;;;174.43;;
11269;SDS011;5692;48.956;9.200;2023-09-18T08:16:06;176.25;;;167.80;;
11269;SDS011;5692;48.956;9.200;2023-09-18T08:18:33;185.60;;;176.70;;
11269;SDS011;5692;48.956;9.200;2023-09-18T08:21:06;189.77;;;180.68;;
11269;SDS011;5692;48.956;9.200;2023-09-18T08:23:34;186.48;;;177.57;;
11269;SDS011;5692;48.956;9.200;2023-09-18T08:26:01;170.20;;;162.02;;
11269;SDS011;5692;48.956;9.200;2023-09-18T08:28:28;161.70;;;153.95;;
11269;SDS011;5692;48.956;9.200;2023-09-18T08:30:54;181.93;;;173.20;;
11269;SDS011;5692;48.956;9.200;2023-09-18T08:33:21;180.82;;;172.15;;
11269;SDS011;5692;48.956;9.200;2023-09-18T08:35:47;182.30;;;173.60;;
11269;SDS011;5692;48.956;9.200;2023-09-18T08:38:14;184.68;;;175.82;;
11269;SDS011;5692;48.956;9.200;2023-09-18T08:40:41;179.05;;;170.48;;
11269;SDS011;5692;48.956;9.200;2023-09-18T08:43:10;174.48;;;166.13;;
11269;SDS011;5692;48.956;9.200;2023-09-18T08:48:06;188.15;;;179.15;;
11269;SDS011;5692;48.956;9.200;2023-09-18T08:50:33;179.48;;;170.88;;
11269;SDS011;5692;48.956;9.200;2023-09-18T08:53:01;173.70;;;165.38;;
11269;SDS011;5692;48.956;9.200;2023-09-18T08:55:27;176.23;;;167.80;;
11269;SDS011;5692;48.956;9.200;2023-09-18T08:57:54;174.80;;;166.43;;
11269;SDS011;5692;48.956;9.200;2023-09-18T09:00:21;174.43;;;166.07;;
11269;SDS011;5692;48.956;9.200;2023-09-18T09:02:47;169.13;;;161.02;;
11269;SDS011;5692;48.956;9.200;2023-09-18T09:05:17;183.32;;;174.52;;
11269;SDS011;5692;48.956;9.200;2023-09-18T09:07:43;180.23;;;171.60;;
11269;SDS011;5692;48.956;9.200;2023-09-18T09:10:09;187.38;;;178.38;;
11269;SDS011;5692;48.956;9.200;2023-09-18T09:15:14;196.02;;;186.63;;
11269;SDS011;5692;48.956;9.200;2023-09-18T09:17:40;193.73;;;184.43;;
11269;SDS011;5692;48.956;9.200;2023-09-18T09:20:10;186.68;;;177.75;;
11269;SDS011;5692;48.956;9.200;2023-09-18T09:22:37;183.20;;;174.43;;
11269;SDS011;5692;48.956;9.200;2023-09-18T09:25:05;189.38;;;180.27;;
11269;SDS011;5692;48.956;9.200;2023-09-18T09:27:44;173.70;;;165.40;;
11269;SDS011;5692;48.956;9.200;2023-09-18T09:30:10;184.27;;;175.48;;
11269;SDS011;5692;48.956;9.200;2023-09-18T09:32:36;180.68;;;172.02;;
11269;SDS011;5692;48.956;9.200;2023-09-18T09:35:02;190.93;;;181.77;;
11269;SDS011;5692;48.956;9.200;2023-09-18T09:37:32;189.50;;;180.43;;
11269;SDS011;5692;48.956;9.200;2023-09-18T09:40:02;185.48;;;176.60;;
11269;SDS011;5692;48.956;9.200;2023-09-18T09:42:38;186.40;;;177.50;;
11269;SDS011;5692;48.956;9.200;2023-09-18T09:45:07;180.00;;;171.40;;
11269;SDS011;5692;48.956;9.200;2023-09-18T09:47:38;172.95;;;164.65;;
11269;SDS011;5692;48.956;9.200;2023-09-18T09:52:34;167.93;;;159.90;;
11269;SDS011;5692;48.956;9.200;2023-09-18T09:55:01;177.45;;;168.95;;
11269;SDS011;5692;48.956;9.200;2023-09-18T09:57:30;182.02;;;173.32;;
11269;SDS011;5692;48.956;9.200;2023-09-18T10:00:03;178.65;;;170.10;;
11269;SDS011;5692;48.956;9.200;2023-09-18T10:02:50;177.88;;;169.38;;
11269;SDS011;5692;48.956;9.200;2023-09-18T10:05:16;197.43;;;187.95;;
11269;SDS011;5692;48.956;9.200;2023-09-18T10:07:42;172.40;;;164.15;;
11269;SDS011;5692;48.956;9.200;2023-09-18T10:10:08;181.95;;;173.25;;
11269;SDS011;5692;48.956;9.200;2023-09-18T10:12:35;185.27;;;176.40;;
11269;SDS011;5692;48.956;9.200;2023-09-18T10:15:01;181.48;;;172.77;;
11269;SDS011;5692;48.956;9.200;2023-09-18T10:17:28;174.38;;;166.02;;
11269;SDS011;5692;48.956;9.200;2023-09-18T10:20:01;181.88;;;173.15;;
11269;SDS011;5692;48.956;9.200;2023-09-18T10:22:37;168.10;;;160.05;;
11269;SDS011;5692;48.956;9.200;2023-09-18T10:25:12;180.88;;;172.18;;
11269;SDS011;5692;48.956;9.200;2023-09-18T10:27:42;180.23;;;171.63;;
11269;SDS011;5692;48.956;9.200;2023-09-18T10:30:09;188.80;;;179.75;;
11269;SDS011;5692;48.956;9.200;2023-09-18T10:32:37;178.88;;;170.30;;
11269;SDS011;5692;48.956;9.200;2023-09-18T10:35:07;180.18;;;171.57;;
11269;SDS011;5692;48.956;9.200;2023-09-18T10:37:33;164.98;;;157.07;;
11269;SDS011;5692;48.956;9.200;2023-09-18T10:40:00;178.82;;;170.23;;
11269;SDS011;5692;48.956;9.200;2023-09-18T10:42:27;169.32;;;161.23;;
11269;SDS011;5692;48.956;9.200;2023-09-18T10:44:55;181.65;;;172.95;;
11269;SDS011;5692;48.956;9.200;2023-09-18T10:47:21;160.30;;;152.60;;
11269;SDS011;5692;48.956;9.200;2023-09-18T10:49:48;179.30;;;170.70;;
11269;SDS011;5692;48.956;9.200;2023-09-18T10:52:15;175.35;;;166.95;;
11269;SDS011;5692;48.956;9.200;2023-09-18T10:54:41;172.07;;;163.85;;
11269;SDS011;5692;48.956;9.200;2023-09-18T10:57:07;170.05;;;161.93;;
11269;SDS011;5692;48.956;9.200;2023-09-18T10:59:33;163.45;;;155.60;;
11269;SDS011;5692;48.956;9.200;2023-09-18T11:02:03;168.60;;;160.52;;
11269;SDS011;5692;48.956;9.200;2023-09-18T11:04:32;160.77;;;153.05;;
11269;SDS011;5692;48.956;9.200;2023-09-18T11:07:01;164.40;;;156.50;;
11269;SDS011;5692;48.956;9.200;2023-09-18T11:09:30;169.13;;;161.02;;
11269;SDS011;5692;48.956;9.200;2023-09-18T11:14:44;171.13;;;162.93;;
11269;SDS011;5692;48.956;9.200;2023-09-18T11:20:07;173.32;;;165.02;;
11269;SDS011;5692;48.956;9.200;2023-09-18T11:22:34;183.73;;;174.95;;
11269;SDS011;5692;48.956;9.200;2023-09-18T11:27:53;176.13;;;167.70;;
11269;SDS011;5692;48.956;9.200;2023-09-18T11:30:22;176.13;;;167.73;;
11269;SDS011;5692;48.956;9.200;2023-09-18T11:32:49;171.20;;;163.00;;
11269;SDS011;5692;48.956;9.200;2023-09-18T11:35:15;178.65;;;170.10;;
11269;SDS011;5692;48.956;9.200;2023-09-18T11:37:45;159.15;;;151.52;;
11269;SDS011;5692;48.956;9.200;2023-09-18T11:40:26;159.88;;;152.23;;
11269;SDS011;5692;48.956;9.200;2023-09-18T11:45:41;176.77;;;168.30;;
11269;SDS011;5692;48.956;9.200;2023-09-18T11:48:07;164.15;;;156.25;;
11269;SDS011;5692;48.956;9.200;2023-09-18T11:50:37;162.73;;;154.93;;
11269;SDS011;5692;48.956;9.200;2023-09-18T11:53:06;163.32;;;155.50;;
11269;SDS011;5692;48.956;9.200;2023-09-18T11:55:32;170.45;;;162.27;;
11269;SDS011;5692;48.956;9.200;2023-09-18T11:57:59;162.68;;;154.88;;
11269;SDS011;5692;48.956;9.200;2023-09-18T12:00:26;177.70;;;169.20;;
11269;SDS011;5692;48.956;9.200;2023-09-18T12:02:55;170.68;;;162.50;;
11269;SDS011;5692;48.956;9.200;2023-09-18T12:05:23;193.32;;;184.07;;
11269;SDS011;5692;48.956;9.200;2023-09-18T12:07:52;187.63;;;178.65;;
11269;SDS011;5692;48.956;9.200;2023-09-18T12:10:19;192.95;;;183.73;;
11269;SDS011;5692;48.956;9.200;2023-09-18T12:12:46;184.15;;;175.35;;
11269;SDS011;5692;48.956;9.200;2023-09-18T12:15:13;177.80;;;169.27;;
11269;SDS011;5692;48.956;9.200;2023-09-18T12:17:40;154.13;;;146.73;;
11269;SDS011;5692;48.956;9.200;2023-09-18T12:20:14;168.93;;;160.82;;
11269;SDS011;5692;48.956;9.200;2023-09-18T12:22:40;174.30;;;165.95;;
11269;SDS011;5692;48.956;9.200;2023-09-18T12:25:13;183.32;;;174.52;;
11269;SDS011;5692;48.956;9.200;2023-09-18T12:27:42;171.02;;;162.82;;
11269;SDS011;5692;48.956;9.200;2023-09-18T12:30:08;177.15;;;168.65;;
11269;SDS011;5692;48.956;9.200;2023-09-18T12:32:38;178.05;;;169.55;;
11269;SDS011;5692;48.956;9.200;2023-09-18T12:35:07;178.45;;;169.90;;
11269;SDS011;5692;48.956;9.200;2023-09-18T12:37:34;177.70;;;169.20;;
11269;SDS011;5692;48.956;9.200;2023-09-18T12:40:00;181.88;;;173.18;;
11269;SDS011;5692;48.956;9.200;2023-09-18T12:42:28;185.25;;;176.35;;
11269;SDS011;5692;48.956;9.200;2023-09-18T12:44:54;188.88;;;179.82;;
11269;SDS011;5692;48.956;9.200;2023-09-18T12:47:23;183.00;;;174.20;;
11269;SDS011;5692;48.956;9.200;2023-09-18T12:49:51;181.90;;;173.20;;
11269;SDS011;5692;48.956;9.200;2023-09-18T12:52:21;187.63;;;178.65;;
11269;SDS011;5692;48.956;9.200;2023-09-18T12:54:50;185.55;;;176.65;;
11269;SDS011;5692;48.956;9.200;2023-09-18T12:57:21;189.90;;;180.80;;
11269;SDS011;5692;48.956;9.200;2023-09-18T12:59:47;181.27;;;172.60;;
11269;SDS011;5692;48.956;9.200;2023-09-18T13:02:16;186.48;;;177.52;;
11269;SDS011;5692;48.956;9.200;2023-09-18T13:04:50;202.38;;;192.68;;
11269;SDS011;5692;48.956;9.200;2023-09-18T13:07:16;202.23;;;192.52;;
11269;SDS011;5692;48.956;9.200;2023-09-18T13:09:43;186.35;;;177.43;;
11269;SDS011;5692;48.956;9.200;2023-09-18T13:12:24;194.02;;;184.75;;
11269;SDS011;5692;48.956;9.200;2023-09-18T13:17:35;208.25;;;198.25;;
11269;SDS011;5692;48.956;9.200;2023-09-18T13:20:05;208.43;;;198.45;;
11269;SDS011;5692;48.956;9.200;2023-09-18T13:22:32;210.57;;;200.48;;
11269;SDS011;5692;48.956;9.200;2023-09-18T13:24:58;204.52;;;194.73;;
11269;SDS011;5692;48.956;9.200;2023-09-18T13:27:27;198.77;;;189.27;;
11269;SDS011;5692;48.956;9.200;2023-09-18T13:29:53;204.13;;;194.35;;
11269;SDS011;5692;48.956;9.200;2023-09-18T13:32:20;194.07;;;184.77;;
11269;SDS011;5692;48.956;9.200;2023-09-18T13:34:47;197.38;;;187.93;;
11269;SDS011;5692;48.956;9.200;2023-09-18T13:37:13;207.18;;;197.25;;
11269;SDS011;5692;48.956;9.200;2023-09-18T13:39:42;205.80;;;195.95;;
11269;SDS011;5692;48.956;9.200;2023-09-18T13:42:08;185.90;;;177.00;;
11269;SDS011;5692;48.956;9.200;2023-09-18T13:44:34;195.25;;;185.90;;
11269;SDS011;5692;48.956;9.200;2023-09-18T13:47:01;196.60;;;187.20;;
11269;SDS011;5692;48.956;9.200;2023-09-18T13:49:31;205.77;;;195.93;;
11269;SDS011;5692;48.956;9.200;2023-09-18T13:52:02;202.98;;;193.25;;
11269;SDS011;5692;48.956;9.200;2023-09-18T13:54:37;194.27;;;184.97;;
11269;SDS011;5692;48.956;9.200;2023-09-18T13:57:03;196.33;;;186.93;;
11269;SDS011;5692;48.956;9.200;2023-09-18T13:59:29;212.50;;;202.30;;
11269;SDS011;5692;48.956;9.200;2023-09-18T14:01:55;198.50;;;189.00;;
11269;SDS011;5692;48.956;9.200;2023-09-18T14:04:22;210.40;;;200.30;;
11269;SDS011;5692;48.956;9.200;2023-09-18T14:06:48;216.43;;;206.07;;
11269;SDS011;5692;48.956;9.200;2023-09-18T14:09:17;215.60;;;205.30;;
11269;SDS011;5692;48.956;9.200;2023-09-18T14:11:44;201.47;;;191.83;;
11269;SDS011;5692;48.956;9.200;2023-09-18T14:14:11;194.23;;;184.93;;
11269;SDS011;5692;48.956;9.200;2023-09-18T14:16:37;216.20;;;205.83;;
11269;SDS011;5692;48.956;9.200;2023-09-18T14:19:06;198.87;;;189.37;;
11269;SDS011;5692;48.956;9.200;2023-09-18T14:21:36;202.17;;;192.47;;
11269;SDS011;5692;48.956;9.200;2023-09-18T14:24:03;197.20;;;187.80;;
11269;SDS011;5692;48.956;9.200;2023-09-18T14:26:29;197.52;;;188.05;;
11269;SDS011;5692;48.956;9.200;2023-09-18T14:28:55;197.25;;;187.82;;
11269;SDS011;5692;48.956;9.200;2023-09-18T14:31:21;206.37;;;196.47;;
11269;SDS011;5692;48.956;9.200;2023-09-18T14:33:47;183.07;;;174.30;;
11269;SDS011;5692;48.956;9.200;2023-09-18T14:36:13;189.00;;;179.95;;